createdAt,value
2018-08-04T00:00:58.317Z,20.99
2018-08-04T00:01:58.384Z,20.99
2018-08-04T00:02:58.321Z,20.99
2018-08-04T00:03:58.324Z,21.02
2018-08-04T00:04:58.330Z,21.02
2018-08-04T00:05:58.336Z,20.99
2018-08-04T00:06:58.341Z,20.98
2018-08-04T00:07:58.344Z,21.04
2018-08-04T00:08:58.347Z,21.02
2018-08-04T00:09:58.353Z,21.04
2018-08-04T00:10:58.357Z,20.98
2018-08-04T00:11:58.411Z,21.08
2018-08-04T00:12:58.371Z,21.08
2018-08-04T00:13:58.371Z,21.09
2018-08-04T00:14:58.376Z,21.06
2018-08-04T00:15:58.381Z,21.04
2018-08-04T00:16:58.388Z,21.05
2018-08-04T00:17:58.389Z,21.04
2018-08-04T00:18:58.396Z,21.11
2018-08-04T00:19:58.399Z,21.01
2018-08-04T00:20:58.404Z,20.95
2018-08-04T00:21:58.408Z,20.99
2018-08-04T00:22:58.415Z,20.93
2018-08-04T00:23:58.418Z,20.91
2018-08-04T00:24:58.421Z,20.77
2018-08-04T00:25:58.431Z,20.80
2018-08-04T00:26:58.434Z,20.77
2018-08-04T00:27:58.436Z,20.89
2018-08-04T00:28:58.439Z,20.84
2018-08-04T00:29:58.445Z,20.79
2018-08-04T00:30:58.447Z,20.87
2018-08-04T00:31:58.451Z,20.84
2018-08-04T00:32:58.457Z,20.76
2018-08-04T00:33:58.463Z,20.83
2018-08-04T00:34:58.466Z,20.80
2018-08-04T00:35:58.471Z,20.77
2018-08-04T00:36:58.473Z,20.79
2018-08-04T00:37:58.480Z,20.80
2018-08-04T00:38:58.485Z,20.74
2018-08-04T00:39:58.490Z,20.81
2018-08-04T00:40:58.491Z,20.79
2018-08-04T00:41:58.496Z,20.79
2018-08-04T00:42:58.502Z,20.81
2018-08-04T00:43:58.508Z,20.80
2018-08-04T00:44:58.515Z,20.77
2018-08-04T00:45:58.516Z,20.65
2018-08-04T00:46:58.521Z,20.74
2018-08-04T00:47:58.525Z,20.65
2018-08-04T00:48:58.527Z,20.65
2018-08-04T00:49:58.533Z,20.79
2018-08-04T00:50:58.538Z,20.74
2018-08-04T00:51:58.541Z,20.66
2018-08-04T00:52:58.549Z,20.66
2018-08-04T00:53:58.552Z,20.72
2018-08-04T00:54:58.556Z,20.68
2018-08-04T00:55:58.560Z,20.69
2018-08-04T00:56:58.563Z,20.66
2018-08-04T00:57:58.566Z,20.65
2018-08-04T00:58:58.573Z,20.64
2018-08-04T00:59:58.577Z,20.53
2018-08-04T01:00:58.582Z,20.50
2018-08-04T01:01:58.587Z,20.51
2018-08-04T01:02:58.591Z,20.42
2018-08-04T01:03:58.595Z,20.38
2018-08-04T01:04:58.598Z,20.42
2018-08-04T01:05:58.603Z,20.34
2018-08-04T01:06:58.608Z,20.30
2018-08-04T01:07:58.613Z,20.34
2018-08-04T01:08:58.618Z,20.38
2018-08-04T01:09:58.626Z,20.35
2018-08-04T01:10:58.622Z,20.38
2018-08-04T01:11:58.629Z,20.42
2018-08-04T01:12:58.636Z,20.35
2018-08-04T01:13:58.638Z,20.39
2018-08-04T01:14:58.643Z,20.50
2018-08-04T01:15:58.648Z,20.50
2018-08-04T01:16:58.653Z,20.50
2018-08-04T01:17:58.658Z,20.51
2018-08-04T01:18:58.662Z,20.38
2018-08-04T01:19:58.666Z,20.43
2018-08-04T01:20:58.664Z,20.42
2018-08-04T01:21:58.671Z,20.46
2018-08-04T01:22:58.674Z,20.43
2018-08-04T01:23:58.679Z,20.34
2018-08-04T01:24:58.686Z,20.35
2018-08-04T01:25:58.695Z,20.38
2018-08-04T01:26:58.695Z,20.33
2018-08-04T01:27:58.700Z,20.42
2018-08-04T01:28:58.703Z,20.38
2018-08-04T01:29:58.706Z,20.54
2018-08-04T01:30:58.718Z,20.50
2018-08-04T01:31:58.718Z,20.49
2018-08-04T01:32:58.719Z,20.46
2018-08-04T01:33:58.767Z,20.50
2018-08-04T01:34:58.731Z,20.50
2018-08-04T01:35:58.733Z,20.47
2018-08-04T01:36:58.735Z,20.28
2018-08-04T01:37:58.743Z,20.23
2018-08-04T01:38:58.744Z,20.21
2018-08-04T01:39:58.754Z,20.20
2018-08-04T01:40:58.753Z,20.09
2018-08-04T01:41:58.758Z,20.09
2018-08-04T01:42:58.766Z,20.00
2018-08-04T01:43:58.767Z,20.15
2018-08-04T01:44:58.770Z,20.12
2018-08-04T01:45:58.776Z,20.06
2018-08-04T01:46:58.779Z,20.08
2018-08-04T01:47:58.785Z,19.94
2018-08-04T01:48:58.787Z,19.98
2018-08-04T01:49:58.793Z,20.03
2018-08-04T01:50:58.796Z,20.05
2018-08-04T01:51:58.801Z,20.03
2018-08-04T01:52:58.805Z,20.10
2018-08-04T01:53:58.809Z,20.09
2018-08-04T01:54:58.814Z,20.09
2018-08-04T01:55:58.820Z,20.09
2018-08-04T01:56:58.823Z,20.08
2018-08-04T01:57:58.825Z,20.08
2018-08-04T01:58:58.830Z,20.09
2018-08-04T01:59:58.837Z,20.16
2018-08-04T02:00:58.839Z,20.06
2018-08-04T02:01:58.843Z,20.13
2018-08-04T02:02:58.847Z,20.20
2018-08-04T02:03:58.851Z,20.20
2018-08-04T02:04:58.854Z,20.24
2018-08-04T02:05:58.859Z,20.25
2018-08-04T02:06:58.862Z,20.20
2018-08-04T02:07:58.870Z,20.18
2018-08-04T02:08:58.871Z,20.05
2018-08-04T02:09:58.876Z,20.08
2018-08-04T02:10:58.880Z,19.97
2018-08-04T02:11:58.889Z,20.05
2018-08-04T02:12:58.891Z,19.91
2018-08-04T02:13:58.891Z,20.00
2018-08-04T02:14:58.897Z,19.95
2018-08-04T02:15:58.912Z,19.87
2018-08-04T02:16:58.905Z,19.91
2018-08-04T02:17:58.908Z,19.83
2018-08-04T02:18:58.913Z,19.84
2018-08-04T02:19:58.917Z,19.86
2018-08-04T02:20:58.923Z,19.76
2018-08-04T02:21:58.925Z,19.78
2018-08-04T02:22:58.930Z,19.70
2018-08-04T02:23:58.935Z,19.80
2018-08-04T02:24:58.936Z,19.75
2018-08-04T02:25:58.941Z,19.84
2018-08-04T02:26:58.947Z,19.76
2018-08-04T02:27:58.950Z,19.78
2018-08-04T02:28:58.955Z,19.72
2018-08-04T02:29:58.958Z,19.76
2018-08-04T02:30:58.964Z,19.69
2018-08-04T02:31:58.967Z,19.80
2018-08-04T02:32:58.972Z,19.69
2018-08-04T02:33:58.977Z,19.75
2018-08-04T02:34:58.986Z,19.76
2018-08-04T02:35:58.983Z,19.75
2018-08-04T02:36:58.986Z,19.86
2018-08-04T02:37:58.990Z,19.76
2018-08-04T02:38:58.996Z,19.83
2018-08-04T02:39:58.995Z,19.83
2018-08-04T02:40:59.005Z,19.80
2018-08-04T02:41:59.009Z,19.86
2018-08-04T02:42:59.011Z,19.87
2018-08-04T02:43:59.020Z,19.88
2018-08-04T02:44:59.017Z,19.80
2018-08-04T02:45:59.029Z,19.84
2018-08-04T02:46:59.029Z,19.86
2018-08-04T02:47:59.033Z,19.87
2018-08-04T02:48:59.035Z,19.88
2018-08-04T02:49:59.039Z,19.86
2018-08-04T02:50:59.044Z,19.80
2018-08-04T02:51:59.049Z,19.87
2018-08-04T02:52:59.051Z,19.84
2018-08-04T02:53:59.055Z,19.78
2018-08-04T02:54:59.059Z,19.75
2018-08-04T02:55:59.068Z,19.78
2018-08-04T02:56:59.069Z,19.73
2018-08-04T02:57:59.071Z,19.58
2018-08-04T02:58:59.075Z,19.65
2018-08-04T02:59:59.081Z,19.65
2018-08-04T03:00:59.087Z,19.68
2018-08-04T03:01:59.088Z,19.55
2018-08-04T03:02:59.093Z,19.68
2018-08-04T03:03:59.097Z,19.65
2018-08-04T03:04:59.099Z,19.68
2018-08-04T03:05:59.103Z,19.70
2018-08-04T03:06:59.113Z,19.68
2018-08-04T03:07:59.116Z,19.72
2018-08-04T03:08:59.115Z,19.72
2018-08-04T03:09:59.119Z,19.70
2018-08-04T03:10:59.123Z,19.70
2018-08-04T03:11:59.127Z,19.69
2018-08-04T03:12:59.130Z,19.63
2018-08-04T03:13:59.138Z,19.68
2018-08-04T03:14:59.136Z,19.60
2018-08-04T03:15:59.141Z,19.60
2018-08-04T03:16:59.147Z,19.60
2018-08-04T03:17:59.166Z,19.58
2018-08-04T03:18:59.159Z,19.61
2018-08-04T03:19:59.161Z,19.61
2018-08-04T03:20:59.163Z,19.57
2018-08-04T03:21:59.167Z,19.55
2018-08-04T03:22:59.171Z,19.48
2018-08-04T03:23:59.173Z,19.55
2018-08-04T03:24:59.177Z,19.57
2018-08-04T03:25:59.183Z,19.47
2018-08-04T03:26:59.188Z,19.47
2018-08-04T03:27:59.193Z,19.46
2018-08-04T03:28:59.256Z,19.50
2018-08-04T03:29:59.197Z,19.33
2018-08-04T03:30:59.203Z,19.36
2018-08-04T03:31:59.223Z,19.36
2018-08-04T03:32:59.209Z,19.36
2018-08-04T03:33:59.218Z,19.33
2018-08-04T03:34:59.219Z,19.25
2018-08-04T03:35:59.224Z,19.35
2018-08-04T03:36:59.226Z,19.36
2018-08-04T03:37:59.230Z,19.42
2018-08-04T03:38:59.233Z,19.39
2018-08-04T03:39:59.238Z,19.48
2018-08-04T03:40:59.241Z,19.35
2018-08-04T03:41:59.245Z,19.39
2018-08-04T03:42:59.249Z,19.38
2018-08-04T03:43:59.255Z,19.39
2018-08-04T03:44:59.255Z,19.38
2018-08-04T03:45:59.261Z,19.46
2018-08-04T03:46:59.264Z,19.48
2018-08-04T03:47:59.274Z,19.48
2018-08-04T03:48:59.269Z,19.61
2018-08-04T03:49:59.276Z,19.58
2018-08-04T03:50:59.282Z,19.65
2018-08-04T03:51:59.299Z,19.66
2018-08-04T03:52:59.288Z,19.65
2018-08-04T03:53:59.296Z,19.69
2018-08-04T03:54:59.297Z,19.63
2018-08-04T03:55:59.302Z,19.66
2018-08-04T03:56:59.303Z,19.55
2018-08-04T03:57:59.308Z,19.50
2018-08-04T03:58:59.314Z,19.51
2018-08-04T03:59:59.322Z,19.47
2018-08-04T04:00:59.324Z,19.42
2018-08-04T04:01:59.321Z,19.38
2018-08-04T04:02:59.327Z,19.40
2018-08-04T04:03:59.331Z,19.28
2018-08-04T04:04:59.334Z,19.38
2018-08-04T04:05:59.337Z,19.43
2018-08-04T04:06:59.344Z,19.35
2018-08-04T04:07:59.365Z,19.47
2018-08-04T04:08:59.348Z,19.38
2018-08-04T04:09:59.352Z,19.43
2018-08-04T04:10:59.359Z,19.42
2018-08-04T04:11:59.367Z,19.54
2018-08-04T04:12:59.369Z,19.51
2018-08-04T04:13:59.368Z,19.55
2018-08-04T04:14:59.373Z,19.57
2018-08-04T04:15:59.376Z,19.65
2018-08-04T04:16:59.381Z,19.66
2018-08-04T04:17:59.384Z,19.73
2018-08-04T04:18:59.389Z,19.72
2018-08-04T04:19:59.392Z,19.73
2018-08-04T04:20:59.396Z,19.72
2018-08-04T04:21:59.398Z,19.70
2018-08-04T04:22:59.405Z,19.61
2018-08-04T04:23:59.413Z,19.57
2018-08-04T04:24:59.411Z,19.63
2018-08-04T04:25:59.415Z,19.73
2018-08-04T04:26:59.421Z,19.68
2018-08-04T04:27:59.428Z,19.63
2018-08-04T04:28:59.426Z,19.69
2018-08-04T04:29:59.430Z,19.63
2018-08-04T04:30:59.436Z,19.66
2018-08-04T04:31:59.440Z,19.61
2018-08-04T04:32:59.448Z,19.65
2018-08-04T04:33:59.448Z,19.63
2018-08-04T04:34:59.450Z,19.72
2018-08-04T04:35:59.455Z,19.63
2018-08-04T04:36:59.478Z,19.69
2018-08-04T04:37:59.464Z,19.73
2018-08-04T04:38:59.465Z,19.72
2018-08-04T04:39:59.469Z,19.79
2018-08-04T04:40:59.475Z,19.78
2018-08-04T04:41:59.478Z,19.72
2018-08-04T04:42:59.482Z,19.79
2018-08-04T04:43:59.483Z,19.69
2018-08-04T04:44:59.488Z,19.79
2018-08-04T04:45:59.494Z,19.84
2018-08-04T04:46:59.503Z,19.88
2018-08-04T04:47:59.502Z,19.84
2018-08-04T04:48:59.505Z,19.95
2018-08-04T04:49:59.511Z,19.95
2018-08-04T04:50:59.515Z,20.02
2018-08-04T04:51:59.518Z,20.08
2018-08-04T04:52:59.521Z,20.09
2018-08-04T04:53:59.525Z,20.08
2018-08-04T04:54:59.530Z,20.25
2018-08-04T04:55:59.535Z,20.24
2018-08-04T04:56:59.536Z,20.34
2018-08-04T04:57:59.542Z,20.34
2018-08-04T04:58:59.547Z,20.41
2018-08-04T04:59:59.552Z,20.43
2018-08-04T05:00:59.554Z,20.51
2018-08-04T05:01:59.572Z,20.50
2018-08-04T05:02:59.563Z,20.62
2018-08-04T05:03:59.565Z,20.64
2018-08-04T05:04:59.571Z,20.66
2018-08-04T05:05:59.575Z,20.72
2018-08-04T05:06:59.580Z,20.62
2018-08-04T05:07:59.583Z,20.72
2018-08-04T05:08:59.589Z,20.69
2018-08-04T05:09:59.593Z,20.74
2018-08-04T05:10:59.596Z,20.77
2018-08-04T05:11:59.602Z,20.77
2018-08-04T05:12:59.604Z,20.84
2018-08-04T05:13:59.610Z,20.87
2018-08-04T05:14:59.618Z,20.91
2018-08-04T05:15:59.618Z,20.95
2018-08-04T05:16:59.620Z,20.91
2018-08-04T05:17:59.624Z,20.96
2018-08-04T05:18:59.629Z,20.98
2018-08-04T05:19:59.635Z,21.06
2018-08-04T05:20:59.641Z,21.04
2018-08-04T05:21:59.644Z,21.14
2018-08-04T05:22:59.644Z,21.19
2018-08-04T05:23:59.652Z,21.17
2018-08-04T05:24:59.655Z,21.27
2018-08-04T05:25:59.659Z,21.29
2018-08-04T05:26:59.664Z,21.39
2018-08-04T05:27:59.673Z,21.45
2018-08-04T05:28:59.675Z,21.41
2018-08-04T05:29:59.677Z,21.44
2018-08-04T05:30:59.685Z,21.53
2018-08-04T05:31:59.711Z,21.57
2018-08-04T05:32:59.692Z,21.59
2018-08-04T05:33:59.697Z,21.57
2018-08-04T05:34:59.702Z,21.60
2018-08-04T05:35:59.705Z,21.66
2018-08-04T05:36:59.710Z,21.67
2018-08-04T05:37:59.715Z,21.66
2018-08-04T05:38:59.720Z,21.71
2018-08-04T05:39:59.728Z,21.76
2018-08-04T05:40:59.729Z,21.90
2018-08-04T05:41:59.743Z,21.94
2018-08-04T05:42:59.739Z,21.97
2018-08-04T05:43:59.745Z,22.01
2018-08-04T05:44:59.747Z,22.04
2018-08-04T05:45:59.752Z,22.13
2018-08-04T05:46:59.756Z,22.28
2018-08-04T05:47:59.761Z,22.29
2018-08-04T05:48:59.768Z,22.29
2018-08-04T05:49:59.780Z,22.47
2018-08-04T05:50:59.775Z,22.44
2018-08-04T05:51:59.782Z,22.54
2018-08-04T05:52:59.787Z,22.59
2018-08-04T05:53:59.791Z,22.74
2018-08-04T05:54:59.795Z,22.75
2018-08-04T05:55:59.800Z,22.86
2018-08-04T05:56:59.806Z,22.96
2018-08-04T05:57:59.880Z,22.94
2018-08-04T05:58:59.816Z,23.07
2018-08-04T05:59:59.821Z,23.20
2018-08-04T06:00:59.823Z,23.32
2018-08-04T06:01:59.829Z,23.52
2018-08-04T06:02:59.835Z,23.61
2018-08-04T06:03:59.842Z,23.61
2018-08-04T06:04:59.848Z,23.75
2018-08-04T06:05:59.853Z,24.02
2018-08-04T06:06:59.854Z,24.22
2018-08-04T06:07:59.861Z,24.52
2018-08-04T06:08:59.862Z,24.98
2018-08-04T06:09:59.867Z,25.38
2018-08-04T06:10:59.879Z,25.79
2018-08-04T06:11:59.880Z,26.32
2018-08-04T06:12:59.885Z,26.84
2018-08-04T06:13:59.892Z,27.31
2018-08-04T06:14:59.897Z,27.64
2018-08-04T06:15:59.903Z,28.06
2018-08-04T06:16:59.912Z,28.58
2018-08-04T06:17:59.911Z,28.95
2018-08-04T06:18:59.918Z,28.96
2018-08-04T06:19:59.925Z,29.22
2018-08-04T06:20:59.927Z,29.53
2018-08-04T06:21:59.964Z,29.96
2018-08-04T06:22:59.942Z,30.19
2018-08-04T06:23:59.946Z,30.54
2018-08-04T06:24:59.955Z,30.76
2018-08-04T06:25:59.962Z,31.01
2018-08-04T06:26:59.966Z,31.20
2018-08-04T06:27:59.975Z,31.20
2018-08-04T06:28:59.982Z,31.28
2018-08-04T06:29:59.995Z,31.42
2018-08-04T06:30:59.989Z,31.48
2018-08-04T06:32:00.027Z,31.73
2018-08-04T06:33:00.004Z,31.50
2018-08-04T06:34:00.024Z,31.75
2018-08-04T06:35:00.022Z,31.93
2018-08-04T06:36:00.029Z,32.20
2018-08-04T06:37:00.041Z,32.25
2018-08-04T06:38:00.044Z,32.25
2018-08-04T06:39:00.069Z,32.54
2018-08-04T06:40:00.058Z,32.74
2018-08-04T06:41:00.066Z,32.95
2018-08-04T06:42:00.076Z,33.19
2018-08-04T06:43:00.108Z,33.13
2018-08-04T06:44:00.091Z,33.26
2018-08-04T06:45:00.101Z,33.23
2018-08-04T06:46:00.111Z,33.22
2018-08-04T06:47:00.115Z,33.39
2018-08-04T06:48:00.130Z,33.23
2018-08-04T06:49:00.132Z,32.99
2018-08-04T06:50:00.141Z,32.99
2018-08-04T06:51:00.153Z,32.84
2018-08-04T06:52:00.164Z,32.69
2018-08-04T06:53:00.220Z,32.80
2018-08-04T06:54:00.178Z,32.77
2018-08-04T06:55:00.188Z,32.93
2018-08-04T06:56:00.197Z,33.10
2018-08-04T06:57:00.208Z,33.29
2018-08-04T06:58:00.217Z,33.31
2018-08-04T06:59:00.228Z,33.55
2018-08-04T07:00:00.237Z,33.51
2018-08-04T07:01:00.246Z,33.73
2018-08-04T07:02:00.264Z,33.98
2018-08-04T07:03:00.266Z,34.29
2018-08-04T07:04:00.299Z,34.44
2018-08-04T07:05:00.286Z,34.63
2018-08-04T07:06:00.306Z,34.73
2018-08-04T07:07:00.310Z,34.88
2018-08-04T07:08:00.323Z,35.07
2018-08-04T07:09:00.329Z,35.07
2018-08-04T07:10:00.338Z,35.02
2018-08-04T07:11:00.351Z,35.14
2018-08-04T07:12:00.371Z,35.15
2018-08-04T07:13:00.373Z,34.99
2018-08-04T07:14:00.386Z,35.18
2018-08-04T07:15:00.394Z,35.14
2018-08-04T07:16:00.406Z,35.13
2018-08-04T07:17:00.435Z,35.10
2018-08-04T07:18:00.429Z,35.47
2018-08-04T07:19:00.439Z,35.62
2018-08-04T07:20:00.454Z,35.66
2018-08-04T07:21:00.462Z,35.67
2018-08-04T07:22:00.475Z,35.40
2018-08-04T07:23:00.547Z,35.30
2018-08-04T07:24:00.503Z,35.45
2018-08-04T07:25:00.508Z,35.45
2018-08-04T07:26:00.521Z,35.57
2018-08-04T07:27:00.546Z,35.67
2018-08-04T07:28:00.547Z,35.66
2018-08-04T07:29:00.615Z,35.74
2018-08-04T07:30:00.569Z,35.86
2018-08-04T07:31:00.585Z,35.89
2018-08-04T07:32:00.613Z,36.01
2018-08-04T07:33:00.607Z,36.08
2018-08-04T07:34:00.621Z,36.11
2018-08-04T07:35:00.633Z,35.93
2018-08-04T07:36:00.646Z,35.95
2018-08-04T07:37:00.680Z,36.00
2018-08-04T07:38:00.688Z,36.03
2018-08-04T07:39:00.688Z,36.17
2018-08-04T07:40:00.701Z,36.23
2018-08-04T07:41:00.771Z,36.24
2018-08-04T07:42:00.724Z,35.97
2018-08-04T07:43:00.741Z,35.73
2018-08-04T07:44:00.752Z,35.51
2018-08-04T07:45:00.766Z,35.62
2018-08-04T07:46:00.785Z,35.28
2018-08-04T07:47:00.804Z,35.21
2018-08-04T07:48:00.808Z,35.48
2018-08-04T07:49:00.829Z,35.66
2018-08-04T07:50:00.836Z,35.76
2018-08-04T07:51:00.850Z,35.91
2018-08-04T07:52:00.865Z,35.62
2018-08-04T07:53:00.897Z,35.63
2018-08-04T07:54:00.895Z,35.57
2018-08-04T07:55:00.904Z,35.39
2018-08-04T07:56:00.919Z,35.60
2018-08-04T07:57:00.937Z,35.62
2018-08-04T07:58:00.947Z,35.77
2018-08-04T07:59:00.964Z,36.01
2018-08-04T08:00:00.979Z,36.00
2018-08-04T08:01:01.028Z,35.93
2018-08-04T08:02:01.012Z,36.08
2018-08-04T08:03:01.023Z,36.08
2018-08-04T08:04:01.037Z,35.89
2018-08-04T08:05:01.107Z,35.91
2018-08-04T08:06:01.070Z,35.55
2018-08-04T08:07:01.084Z,35.33
2018-08-04T08:08:01.099Z,35.44
2018-08-04T08:09:01.117Z,35.52
2018-08-04T08:10:01.130Z,35.26
2018-08-04T08:11:01.193Z,35.33
2018-08-04T08:12:01.162Z,35.45
2018-08-04T08:13:01.176Z,35.48
2018-08-04T08:14:01.194Z,35.55
2018-08-04T08:15:01.208Z,35.52
2018-08-04T08:16:01.225Z,35.28
2018-08-04T08:17:01.241Z,35.17
2018-08-04T08:18:01.258Z,35.32
2018-08-04T08:19:01.274Z,35.17
2018-08-04T08:20:01.291Z,35.07
2018-08-04T08:21:01.306Z,34.96
2018-08-04T08:22:01.324Z,34.73
2018-08-04T08:23:01.338Z,34.76
2018-08-04T08:24:01.356Z,34.80
2018-08-04T08:25:01.372Z,34.61
2018-08-04T08:26:01.386Z,34.66
2018-08-04T08:27:01.405Z,34.48
2018-08-04T08:29:54.248Z,34.08
2018-08-04T08:30:33.076Z,34.24
2018-08-04T08:32:27.021Z,34.39
2018-08-04T08:33:26.991Z,34.42
2018-08-04T08:35:20.559Z,34.53
2018-08-04T08:36:20.395Z,34.60
2018-08-04T08:38:14.565Z,34.76
2018-08-04T08:39:14.469Z,34.31
2018-08-04T08:41:08.680Z,34.31
2018-08-04T08:42:08.345Z,34.45
2018-08-04T08:44:01.727Z,34.02
2018-08-04T08:45:01.849Z,34.29
2018-08-04T08:46:55.230Z,33.68
2018-08-04T08:47:55.131Z,33.65
2018-08-04T08:49:48.521Z,33.63
2018-08-04T08:50:48.487Z,33.78
2018-08-04T08:52:41.512Z,34.24
2018-08-04T08:53:41.451Z,34.11
2018-08-04T08:55:34.404Z,34.29
2018-08-04T08:56:34.345Z,34.09
2018-08-04T08:58:27.754Z,33.79
2018-08-04T08:59:27.742Z,33.55
2018-08-04T09:01:21.176Z,33.76
2018-08-04T09:02:21.112Z,33.58
2018-08-04T09:04:14.032Z,34.04
2018-08-04T09:05:14.045Z,34.07
2018-08-04T09:07:07.442Z,34.60
2018-08-04T09:08:07.436Z,34.64
2018-08-04T09:10:00.825Z,34.91
2018-08-04T09:11:00.841Z,34.91
2018-08-04T09:12:53.790Z,34.91
2018-08-04T09:13:53.756Z,34.51
2018-08-04T09:15:47.180Z,33.95
2018-08-04T09:16:47.161Z,33.60
2018-08-04T09:18:40.565Z,32.57
2018-08-04T09:19:40.575Z,32.49
2018-08-04T09:20:40.567Z,32.25
2018-08-04T09:21:40.594Z,31.98
2018-08-04T09:22:40.633Z,31.85
2018-08-04T09:23:40.613Z,31.70
2018-08-04T09:24:40.630Z,31.61
2018-08-04T09:25:40.645Z,31.49
2018-08-04T09:26:40.665Z,31.45
2018-08-04T09:27:40.683Z,31.27
2018-08-04T09:28:40.703Z,31.04
2018-08-04T09:29:40.706Z,30.81
2018-08-04T09:30:40.720Z,30.74
2018-08-04T09:31:40.736Z,30.53
2018-08-04T09:32:40.748Z,30.49
2018-08-04T09:33:40.761Z,30.27
2018-08-04T09:34:40.774Z,30.21
2018-08-04T09:35:40.792Z,30.19
2018-08-04T09:36:40.802Z,30.29
2018-08-04T09:37:40.814Z,30.37
2018-08-04T09:38:40.824Z,30.54
2018-08-04T09:39:40.838Z,30.76
2018-08-04T09:40:40.848Z,30.78
2018-08-04T09:41:40.866Z,30.80
2018-08-04T09:42:40.874Z,30.89
2018-08-04T09:43:40.897Z,30.83
2018-08-04T09:44:40.896Z,30.81
2018-08-04T09:45:40.923Z,30.87
2018-08-04T09:46:40.919Z,31.24
2018-08-04T09:47:40.935Z,31.46
2018-08-04T09:48:40.943Z,31.68
2018-08-04T09:49:40.953Z,32.10
2018-08-04T09:50:40.966Z,32.37
2018-08-04T09:51:40.977Z,32.57
2018-08-04T09:52:41.059Z,32.89
2018-08-04T09:53:40.999Z,33.03
2018-08-04T09:54:41.010Z,33.20
2018-08-04T09:55:41.025Z,33.41
2018-08-04T09:56:41.034Z,33.51
2018-08-04T09:57:41.044Z,33.73
2018-08-04T09:58:41.056Z,33.80
2018-08-04T09:59:41.091Z,34.07
2018-08-04T10:00:41.079Z,34.09
2018-08-04T10:01:41.089Z,34.08
2018-08-04T10:02:41.108Z,34.20
2018-08-04T10:03:41.126Z,34.42
2018-08-04T10:04:41.129Z,34.44
2018-08-04T10:05:41.138Z,34.51
2018-08-04T10:06:41.160Z,34.50
2018-08-04T10:07:41.162Z,34.63
2018-08-04T10:08:41.176Z,34.64
2018-08-04T10:09:41.184Z,34.38
2018-08-04T10:10:41.198Z,34.29
2018-08-04T10:11:41.209Z,34.08
2018-08-04T10:12:41.222Z,34.35
2018-08-04T10:13:41.233Z,34.42
2018-08-04T10:14:41.243Z,34.39
2018-08-04T10:15:41.256Z,34.41
2018-08-04T10:16:41.291Z,34.26
2018-08-04T10:17:41.280Z,33.97
2018-08-04T10:18:41.293Z,34.16
2018-08-04T10:19:41.326Z,34.26
2018-08-04T10:20:41.322Z,34.41
2018-08-04T10:21:41.328Z,34.32
2018-08-04T10:22:41.343Z,34.34
2018-08-04T10:23:41.355Z,34.29
2018-08-04T10:24:41.374Z,34.20
2018-08-04T10:25:41.398Z,34.41
2018-08-04T10:26:41.390Z,34.63
2018-08-04T10:27:41.400Z,34.74
2018-08-04T10:28:41.413Z,34.72
2018-08-04T10:29:41.440Z,34.86
2018-08-04T10:30:41.438Z,34.89
2018-08-04T10:31:41.451Z,34.94
2018-08-04T10:32:41.600Z,34.94
2018-08-04T10:33:41.472Z,35.08
2018-08-04T10:34:41.485Z,35.17
2018-08-04T10:35:41.502Z,35.21
2018-08-04T10:36:41.509Z,35.37
2018-08-04T10:37:41.521Z,35.21
2018-08-04T10:38:41.581Z,35.29
2018-08-04T10:39:41.549Z,35.50
2018-08-04T10:40:41.559Z,35.50
2018-08-04T10:41:41.584Z,35.54
2018-08-04T10:42:41.583Z,35.51
2018-08-04T10:43:41.597Z,35.39
2018-08-04T10:44:41.611Z,35.23
2018-08-04T10:45:41.621Z,34.99
2018-08-04T10:46:41.635Z,35.20
2018-08-04T10:47:41.642Z,35.13
2018-08-04T10:48:41.659Z,35.28
2018-08-04T10:49:41.690Z,35.44
2018-08-04T10:50:41.680Z,35.57
2018-08-04T10:51:41.692Z,35.60
2018-08-04T10:52:41.705Z,35.74
2018-08-04T10:53:41.715Z,35.70
2018-08-04T10:54:41.732Z,35.32
2018-08-04T10:55:41.743Z,35.28
2018-08-04T10:56:41.757Z,35.30
2018-08-04T10:57:41.768Z,35.21
2018-08-04T10:58:41.778Z,35.37
2018-08-04T10:59:41.794Z,35.51
2018-08-04T11:00:41.816Z,35.25
2018-08-04T11:01:41.828Z,35.21
2018-08-04T11:02:41.840Z,35.32
2018-08-04T11:03:41.895Z,35.44
2018-08-04T11:04:41.858Z,35.35
2018-08-04T11:05:41.870Z,35.23
2018-08-04T11:06:41.878Z,35.13
2018-08-04T11:07:41.893Z,34.34
2018-08-04T11:08:41.904Z,34.35
2018-08-04T11:09:41.926Z,34.14
2018-08-04T11:10:41.928Z,34.04
2018-08-04T11:11:41.941Z,34.01
2018-08-04T11:12:41.956Z,34.02
2018-08-04T11:13:41.969Z,34.02
2018-08-04T11:14:41.978Z,34.11
2018-08-04T11:15:41.991Z,34.08
2018-08-04T11:16:42.002Z,34.29
2018-08-04T11:17:42.016Z,34.53
2018-08-04T11:18:42.027Z,34.73
2018-08-04T11:19:42.040Z,34.83
2018-08-04T11:20:42.049Z,34.98
2018-08-04T11:21:42.062Z,35.13
2018-08-04T11:22:42.074Z,35.28
2018-08-04T11:23:42.085Z,35.35
2018-08-04T11:24:42.098Z,35.42
2018-08-04T11:25:42.109Z,35.52
2018-08-04T11:26:42.121Z,35.60
2018-08-04T11:27:42.133Z,35.69
2018-08-04T11:28:42.147Z,35.91
2018-08-04T11:29:42.159Z,35.81
2018-08-04T11:30:42.171Z,35.88
2018-08-04T11:31:42.185Z,35.88
2018-08-04T11:32:42.195Z,35.54
2018-08-04T11:33:42.222Z,35.76
2018-08-04T11:34:42.265Z,35.93
2018-08-04T11:35:42.355Z,36.36
2018-08-04T11:36:43.524Z,36.31
2018-08-04T11:37:42.996Z,36.42
2018-08-04T11:38:42.289Z,36.01
2018-08-04T11:39:42.282Z,35.85
2018-08-04T11:40:42.398Z,35.62
2018-08-04T11:41:45.159Z,35.63
2018-08-04T11:42:42.690Z,35.50
2018-08-04T11:43:42.363Z,35.25
2018-08-04T11:44:42.347Z,34.94
2018-08-04T11:45:42.360Z,34.74
2018-08-04T11:46:42.368Z,34.83
2018-08-04T11:47:42.660Z,34.92
2018-08-04T11:48:42.395Z,35.14
2018-08-04T11:49:42.406Z,35.17
2018-08-04T11:50:42.419Z,35.35
2018-08-04T11:51:42.704Z,35.51
2018-08-04T11:52:42.470Z,35.81
2018-08-04T11:53:42.455Z,35.73
2018-08-04T11:54:42.466Z,35.63
2018-08-04T11:55:42.489Z,35.37
2018-08-04T11:56:42.491Z,35.32
2018-08-04T11:57:42.507Z,35.18
2018-08-04T11:58:42.863Z,35.06
2018-08-04T11:59:46.038Z,35.15
2018-08-04T12:00:43.208Z,35.26
2018-08-04T12:01:43.038Z,35.47
2018-08-04T12:02:42.747Z,35.55
2018-08-04T12:03:42.577Z,35.57
2018-08-04T12:04:42.600Z,35.63
2018-08-04T12:05:42.600Z,35.47
2018-08-04T12:08:15.064Z,35.50
2018-08-04T12:11:14.376Z,35.23
2018-08-04T12:12:00.128Z,35.33
2018-08-04T12:13:53.543Z,35.11
2018-08-04T12:14:53.582Z,35.13
2018-08-04T12:16:46.994Z,34.96
2018-08-04T12:17:46.965Z,34.73
2018-08-04T12:18:46.980Z,34.86
2018-08-04T12:19:47.043Z,34.98
2018-08-04T12:20:46.990Z,35.11
2018-08-04T12:21:46.997Z,35.48
2018-08-04T12:22:47.011Z,35.62
2018-08-04T12:23:47.056Z,35.64
2018-08-04T12:24:47.040Z,35.82
2018-08-04T12:25:47.063Z,36.01
2018-08-04T12:26:47.060Z,36.14
2018-08-04T12:27:47.072Z,36.15
2018-08-04T12:28:47.088Z,36.19
2018-08-04T12:29:47.099Z,36.33
2018-08-04T12:30:47.115Z,36.29
2018-08-04T12:31:47.123Z,36.26
2018-08-04T12:32:47.135Z,36.11
2018-08-04T12:33:47.149Z,36.06
2018-08-04T12:34:47.161Z,35.70
2018-08-04T12:35:47.169Z,35.67
2018-08-04T12:36:47.188Z,35.64
2018-08-04T12:37:47.204Z,35.18
2018-08-04T12:38:47.228Z,34.95
2018-08-04T12:39:47.222Z,34.84
2018-08-04T12:40:47.280Z,34.64
2018-08-04T12:41:47.261Z,34.48
2018-08-04T12:42:47.264Z,34.44
2018-08-04T12:43:47.269Z,34.46
2018-08-04T12:44:47.283Z,34.24
2018-08-04T12:45:47.297Z,34.20
2018-08-04T12:46:47.313Z,34.05
2018-08-04T12:47:47.325Z,33.90
2018-08-04T12:48:47.326Z,33.73
2018-08-04T12:49:47.342Z,33.74
2018-08-04T12:50:47.354Z,33.63
2018-08-04T12:51:47.366Z,33.68
2018-08-04T12:52:47.486Z,33.61
2018-08-04T12:53:47.446Z,33.58
2018-08-04T12:54:47.402Z,33.61
2018-08-04T12:55:47.410Z,33.51
2018-08-04T12:56:47.422Z,33.49
2018-08-04T12:57:47.435Z,33.51
2018-08-04T12:58:47.443Z,33.41
2018-08-04T12:59:47.453Z,33.33
2018-08-04T13:00:47.467Z,33.34
2018-08-04T13:01:47.513Z,33.19
2018-08-04T13:02:47.487Z,33.23
2018-08-04T13:03:47.497Z,33.20
2018-08-04T13:04:47.751Z,33.29
2018-08-04T13:05:47.521Z,33.41
2018-08-04T13:06:47.537Z,33.31
2018-08-04T13:07:47.543Z,33.33
2018-08-04T13:08:47.620Z,33.34
2018-08-04T13:09:47.565Z,33.20
2018-08-04T13:10:47.598Z,33.23
2018-08-04T13:11:47.584Z,33.30
2018-08-04T13:12:47.597Z,33.39
2018-08-04T13:13:47.609Z,33.29
2018-08-04T13:14:47.618Z,33.22